sensor_id;sensor_type;location;lat;lon;timestamp;P1;durP1;ratioP1;P2;durP2;ratioP2
39880;SDS011;25554;44.954;10.068;2022-12-11T00:00:42;203.60;;;28.90;;
39880;SDS011;25554;44.954;10.068;2022-12-11T00:03:08;90.45;;;26.38;;
39880;SDS011;25554;44.954;10.068;2022-12-11T00:08:03;134.00;;;25.92;;
39880;SDS011;25554;44.954;10.068;2022-12-11T00:10:30;88.50;;;25.83;;
39880;SDS011;25554;44.954;10.068;2022-12-11T00:12:56;140.88;;;29.85;;
39880;SDS011;25554;44.954;10.068;2022-12-11T00:15:22;180.63;;;29.75;;
39880;SDS011;25554;44.954;10.068;2022-12-11T00:17:49;57.17;;;24.45;;
39880;SDS011;25554;44.954;10.068;2022-12-11T00:20:15;120.70;;;24.27;;
39880;SDS011;25554;44.954;10.068;2022-12-11T00:22:41;104.22;;;26.42;;
39880;SDS011;25554;44.954;10.068;2022-12-11T00:25:08;82.95;;;23.50;;
39880;SDS011;25554;44.954;10.068;2022-12-11T00:30:00;45.05;;;20.42;;
39880;SDS011;25554;44.954;10.068;2022-12-11T00:32:26;106.28;;;25.45;;
39880;SDS011;25554;44.954;10.068;2022-12-11T00:37:19;55.60;;;23.08;;
39880;SDS011;25554;44.954;10.068;2022-12-11T00:39:45;84.57;;;26.02;;
39880;SDS011;25554;44.954;10.068;2022-12-11T00:42:11;52.83;;;24.35;;
39880;SDS011;25554;44.954;10.068;2022-12-11T00:44:38;54.40;;;22.65;;
39880;SDS011;25554;44.954;10.068;2022-12-11T00:47:04;55.92;;;22.90;;
39880;SDS011;25554;44.954;10.068;2022-12-11T00:49:30;59.47;;;24.20;;
39880;SDS011;25554;44.954;10.068;2022-12-11T00:51:56;65.80;;;23.33;;
39880;SDS011;25554;44.954;10.068;2022-12-11T00:54:23;195.20;;;27.90;;
39880;SDS011;25554;44.954;10.068;2022-12-11T00:56:49;77.15;;;23.77;;
39880;SDS011;25554;44.954;10.068;2022-12-11T01:01:42;85.88;;;23.67;;
39880;SDS011;25554;44.954;10.068;2022-12-11T01:04:08;104.07;;;23.00;;
39880;SDS011;25554;44.954;10.068;2022-12-11T01:06:34;66.55;;;21.60;;
39880;SDS011;25554;44.954;10.068;2022-12-11T01:09:00;58.53;;;21.92;;
39880;SDS011;25554;44.954;10.068;2022-12-11T01:11:45;49.42;;;22.15;;
39880;SDS011;25554;44.954;10.068;2022-12-11T01:14:12;53.72;;;22.10;;
39880;SDS011;25554;44.954;10.068;2022-12-11T01:16:38;56.00;;;22.95;;
39880;SDS011;25554;44.954;10.068;2022-12-11T01:21:30;51.67;;;20.10;;
39880;SDS011;25554;44.954;10.068;2022-12-11T01:26:23;50.15;;;20.10;;
39880;SDS011;25554;44.954;10.068;2022-12-11T01:28:50;58.17;;;21.15;;
39880;SDS011;25554;44.954;10.068;2022-12-11T01:31:17;96.55;;;23.88;;
39880;SDS011;25554;44.954;10.068;2022-12-11T01:33:45;40.47;;;19.42;;
39880;SDS011;25554;44.954;10.068;2022-12-11T01:36:12;105.53;;;21.75;;
39880;SDS011;25554;44.954;10.068;2022-12-11T01:38:44;125.13;;;24.02;;
39880;SDS011;25554;44.954;10.068;2022-12-11T01:41:12;60.25;;;20.92;;
39880;SDS011;25554;44.954;10.068;2022-12-11T01:46:26;103.45;;;22.80;;
39880;SDS011;25554;44.954;10.068;2022-12-11T01:48:53;69.15;;;22.10;;
39880;SDS011;25554;44.954;10.068;2022-12-11T01:51:20;73.90;;;21.05;;
39880;SDS011;25554;44.954;10.068;2022-12-11T01:53:49;36.40;;;18.58;;
39880;SDS011;25554;44.954;10.068;2022-12-11T01:56:21;31.52;;;17.70;;
39880;SDS011;25554;44.954;10.068;2022-12-11T01:58:49;58.58;;;21.63;;
39880;SDS011;25554;44.954;10.068;2022-12-11T02:01:54;53.35;;;21.20;;
39880;SDS011;25554;44.954;10.068;2022-12-11T02:04:15;45.70;;;19.83;;
39880;SDS011;25554;44.954;10.068;2022-12-11T02:06:44;39.80;;;20.42;;
39880;SDS011;25554;44.954;10.068;2022-12-11T02:09:16;75.57;;;23.92;;
39880;SDS011;25554;44.954;10.068;2022-12-11T02:14:22;115.00;;;22.15;;
39880;SDS011;25554;44.954;10.068;2022-12-11T02:16:56;77.60;;;21.48;;
39880;SDS011;25554;44.954;10.068;2022-12-11T02:30:41;61.17;;;19.00;;
39880;SDS011;25554;44.954;10.068;2022-12-11T02:33:13;41.78;;;19.23;;
39880;SDS011;25554;44.954;10.068;2022-12-11T02:35:42;37.13;;;18.75;;
39880;SDS011;25554;44.954;10.068;2022-12-11T02:40:47;33.00;;;17.25;;
39880;SDS011;25554;44.954;10.068;2022-12-11T02:43:16;67.43;;;20.75;;
39880;SDS011;25554;44.954;10.068;2022-12-11T02:45:44;36.67;;;18.95;;
39880;SDS011;25554;44.954;10.068;2022-12-11T02:48:13;75.05;;;20.10;;
39880;SDS011;25554;44.954;10.068;2022-12-11T02:50:43;39.47;;;19.08;;
39880;SDS011;25554;44.954;10.068;2022-12-11T02:53:15;39.13;;;20.63;;
39880;SDS011;25554;44.954;10.068;2022-12-11T02:55:44;53.72;;;20.58;;
39880;SDS011;25554;44.954;10.068;2022-12-11T02:58:19;38.85;;;20.17;;
39880;SDS011;25554;44.954;10.068;2022-12-11T03:00:48;52.17;;;20.25;;
39880;SDS011;25554;44.954;10.068;2022-12-11T03:03:14;100.45;;;21.85;;
39880;SDS011;25554;44.954;10.068;2022-12-11T03:05:41;50.58;;;20.45;;
39880;SDS011;25554;44.954;10.068;2022-12-11T03:08:08;42.78;;;20.25;;
39880;SDS011;25554;44.954;10.068;2022-12-11T03:13:00;51.65;;;18.40;;
39880;SDS011;25554;44.954;10.068;2022-12-11T03:16:11;41.78;;;19.58;;
39880;SDS011;25554;44.954;10.068;2022-12-11T03:18:33;38.95;;;18.45;;
39880;SDS011;25554;44.954;10.068;2022-12-11T03:21:22;38.40;;;19.55;;
39880;SDS011;25554;44.954;10.068;2022-12-11T03:24:01;37.28;;;18.55;;
39880;SDS011;25554;44.954;10.068;2022-12-11T03:26:34;61.92;;;21.17;;
39880;SDS011;25554;44.954;10.068;2022-12-11T03:29:09;42.20;;;19.00;;
39880;SDS011;25554;44.954;10.068;2022-12-11T03:31:43;37.67;;;19.52;;
39880;SDS011;25554;44.954;10.068;2022-12-11T03:34:44;57.95;;;21.27;;
39880;SDS011;25554;44.954;10.068;2022-12-11T03:37:17;45.95;;;20.05;;
39880;SDS011;25554;44.954;10.068;2022-12-11T03:39:50;39.88;;;20.25;;
39880;SDS011;25554;44.954;10.068;2022-12-11T03:42:21;55.83;;;20.63;;
39880;SDS011;25554;44.954;10.068;2022-12-11T03:44:49;42.90;;;20.63;;
39880;SDS011;25554;44.954;10.068;2022-12-11T03:47:19;39.08;;;18.25;;
39880;SDS011;25554;44.954;10.068;2022-12-11T03:49:48;66.63;;;20.75;;
39880;SDS011;25554;44.954;10.068;2022-12-11T03:52:15;49.70;;;19.55;;
39880;SDS011;25554;44.954;10.068;2022-12-11T03:54:44;45.47;;;20.67;;
39880;SDS011;25554;44.954;10.068;2022-12-11T03:57:15;52.17;;;20.17;;
39880;SDS011;25554;44.954;10.068;2022-12-11T03:59:46;46.15;;;21.40;;
39880;SDS011;25554;44.954;10.068;2022-12-11T04:02:13;49.03;;;21.15;;
39880;SDS011;25554;44.954;10.068;2022-12-11T04:04:40;52.42;;;21.38;;
39880;SDS011;25554;44.954;10.068;2022-12-11T04:07:07;45.28;;;21.92;;
39880;SDS011;25554;44.954;10.068;2022-12-11T04:09:33;47.33;;;22.15;;
39880;SDS011;25554;44.954;10.068;2022-12-11T04:12:00;42.22;;;21.05;;
39880;SDS011;25554;44.954;10.068;2022-12-11T04:14:26;43.30;;;19.95;;
39880;SDS011;25554;44.954;10.068;2022-12-11T04:17:11;45.60;;;20.30;;
39880;SDS011;25554;44.954;10.068;2022-12-11T04:19:58;40.22;;;20.35;;
39880;SDS011;25554;44.954;10.068;2022-12-11T04:22:42;49.47;;;20.10;;
39880;SDS011;25554;44.954;10.068;2022-12-11T04:25:27;50.63;;;21.08;;
39880;SDS011;25554;44.954;10.068;2022-12-11T04:27:54;49.30;;;20.58;;
39880;SDS011;25554;44.954;10.068;2022-12-11T04:32:48;45.50;;;20.58;;
39880;SDS011;25554;44.954;10.068;2022-12-11T04:35:17;45.35;;;22.73;;
39880;SDS011;25554;44.954;10.068;2022-12-11T04:37:44;51.60;;;23.00;;
39880;SDS011;25554;44.954;10.068;2022-12-11T04:40:12;46.28;;;22.08;;
39880;SDS011;25554;44.954;10.068;2022-12-11T04:42:39;46.95;;;23.30;;
39880;SDS011;25554;44.954;10.068;2022-12-11T04:47:36;50.67;;;21.85;;
39880;SDS011;25554;44.954;10.068;2022-12-11T04:50:04;56.33;;;21.50;;
39880;SDS011;25554;44.954;10.068;2022-12-11T04:52:33;61.45;;;23.30;;
39880;SDS011;25554;44.954;10.068;2022-12-11T04:57:25;52.78;;;22.10;;
39880;SDS011;25554;44.954;10.068;2022-12-11T04:59:51;57.67;;;24.23;;
39880;SDS011;25554;44.954;10.068;2022-12-11T05:02:18;54.63;;;24.95;;
39880;SDS011;25554;44.954;10.068;2022-12-11T05:04:44;55.45;;;22.70;;
39880;SDS011;25554;44.954;10.068;2022-12-11T05:07:10;48.28;;;23.30;;
39880;SDS011;25554;44.954;10.068;2022-12-11T05:09:37;52.65;;;21.88;;
39880;SDS011;25554;44.954;10.068;2022-12-11T05:12:03;46.85;;;21.92;;
39880;SDS011;25554;44.954;10.068;2022-12-11T05:16:57;48.33;;;23.38;;
39880;SDS011;25554;44.954;10.068;2022-12-11T05:19:24;46.92;;;21.55;;
39880;SDS011;25554;44.954;10.068;2022-12-11T05:21:51;49.67;;;22.83;;
39880;SDS011;25554;44.954;10.068;2022-12-11T05:24:17;48.38;;;23.25;;
39880;SDS011;25554;44.954;10.068;2022-12-11T05:29:10;49.17;;;22.75;;
39880;SDS011;25554;44.954;10.068;2022-12-11T05:31:36;54.22;;;23.60;;
39880;SDS011;25554;44.954;10.068;2022-12-11T05:36:30;52.08;;;22.02;;
39880;SDS011;25554;44.954;10.068;2022-12-11T05:38:58;45.95;;;22.42;;
39880;SDS011;25554;44.954;10.068;2022-12-11T05:41:26;49.88;;;22.38;;
39880;SDS011;25554;44.954;10.068;2022-12-11T05:43:54;47.67;;;22.70;;
39880;SDS011;25554;44.954;10.068;2022-12-11T05:46:24;45.50;;;22.70;;
39880;SDS011;25554;44.954;10.068;2022-12-11T05:48:56;43.92;;;22.17;;
39880;SDS011;25554;44.954;10.068;2022-12-11T05:51:24;44.30;;;21.42;;
39880;SDS011;25554;44.954;10.068;2022-12-11T05:53:52;43.17;;;20.50;;
39880;SDS011;25554;44.954;10.068;2022-12-11T05:56:20;39.10;;;19.98;;
39880;SDS011;25554;44.954;10.068;2022-12-11T05:58:49;41.17;;;20.58;;
39880;SDS011;25554;44.954;10.068;2022-12-11T06:01:17;41.15;;;20.17;;
39880;SDS011;25554;44.954;10.068;2022-12-11T06:03:46;39.97;;;19.40;;
39880;SDS011;25554;44.954;10.068;2022-12-11T06:06:13;34.50;;;18.35;;
39880;SDS011;25554;44.954;10.068;2022-12-11T06:08:40;37.17;;;18.95;;
39880;SDS011;25554;44.954;10.068;2022-12-11T06:13:33;37.67;;;18.42;;
39880;SDS011;25554;44.954;10.068;2022-12-11T06:16:00;35.05;;;19.27;;
39880;SDS011;25554;44.954;10.068;2022-12-11T06:18:28;36.53;;;18.75;;
39880;SDS011;25554;44.954;10.068;2022-12-11T06:20:55;37.72;;;18.95;;
39880;SDS011;25554;44.954;10.068;2022-12-11T06:25:47;35.15;;;17.65;;
39880;SDS011;25554;44.954;10.068;2022-12-11T06:30:40;33.15;;;17.48;;
39880;SDS011;25554;44.954;10.068;2022-12-11T06:33:06;36.38;;;17.90;;
39880;SDS011;25554;44.954;10.068;2022-12-11T06:37:58;32.90;;;16.08;;
39880;SDS011;25554;44.954;10.068;2022-12-11T06:40:25;34.05;;;17.15;;
39880;SDS011;25554;44.954;10.068;2022-12-11T06:42:52;32.53;;;17.10;;
39880;SDS011;25554;44.954;10.068;2022-12-11T06:45:19;34.03;;;18.15;;
39880;SDS011;25554;44.954;10.068;2022-12-11T06:50:11;33.28;;;16.05;;
39880;SDS011;25554;44.954;10.068;2022-12-11T06:55:04;36.33;;;17.23;;
39880;SDS011;25554;44.954;10.068;2022-12-11T06:57:31;32.53;;;18.02;;
39880;SDS011;25554;44.954;10.068;2022-12-11T06:59:59;37.13;;;18.92;;
39880;SDS011;25554;44.954;10.068;2022-12-11T07:02:25;34.33;;;18.27;;
39880;SDS011;25554;44.954;10.068;2022-12-11T07:07:18;33.78;;;17.67;;
39880;SDS011;25554;44.954;10.068;2022-12-11T07:12:10;28.00;;;15.98;;
39880;SDS011;25554;44.954;10.068;2022-12-11T07:14:36;34.05;;;17.13;;
39880;SDS011;25554;44.954;10.068;2022-12-11T07:17:03;26.85;;;15.50;;
39880;SDS011;25554;44.954;10.068;2022-12-11T07:19:29;27.85;;;15.32;;
39880;SDS011;25554;44.954;10.068;2022-12-11T07:21:56;24.30;;;14.27;;
39880;SDS011;25554;44.954;10.068;2022-12-11T07:24:23;22.92;;;14.25;;
39880;SDS011;25554;44.954;10.068;2022-12-11T07:26:50;23.10;;;13.95;;
39880;SDS011;25554;44.954;10.068;2022-12-11T07:29:17;18.50;;;12.20;;
39880;SDS011;25554;44.954;10.068;2022-12-11T07:31:44;20.05;;;12.35;;
39880;SDS011;25554;44.954;10.068;2022-12-11T07:36:37;19.00;;;11.32;;
39880;SDS011;25554;44.954;10.068;2022-12-11T07:39:03;20.98;;;12.63;;
39880;SDS011;25554;44.954;10.068;2022-12-11T07:43:58;21.73;;;12.57;;
39880;SDS011;25554;44.954;10.068;2022-12-11T07:46:25;19.75;;;12.95;;
39880;SDS011;25554;44.954;10.068;2022-12-11T07:48:53;21.05;;;12.85;;
39880;SDS011;25554;44.954;10.068;2022-12-11T07:51:21;22.55;;;13.50;;
39880;SDS011;25554;44.954;10.068;2022-12-11T07:53:53;20.58;;;13.07;;
39880;SDS011;25554;44.954;10.068;2022-12-11T07:56:21;22.20;;;13.38;;
39880;SDS011;25554;44.954;10.068;2022-12-11T07:58:47;21.70;;;12.20;;
39880;SDS011;25554;44.954;10.068;2022-12-11T08:03:41;22.30;;;12.63;;
39880;SDS011;25554;44.954;10.068;2022-12-11T08:06:08;19.55;;;12.50;;
39880;SDS011;25554;44.954;10.068;2022-12-11T08:08:35;22.92;;;13.85;;
39880;SDS011;25554;44.954;10.068;2022-12-11T08:11:02;20.95;;;13.48;;
39880;SDS011;25554;44.954;10.068;2022-12-11T08:13:29;20.80;;;13.52;;
39880;SDS011;25554;44.954;10.068;2022-12-11T08:15:56;21.35;;;13.25;;
39880;SDS011;25554;44.954;10.068;2022-12-11T08:18:23;20.40;;;12.98;;
39880;SDS011;25554;44.954;10.068;2022-12-11T08:20:49;19.00;;;12.48;;
39880;SDS011;25554;44.954;10.068;2022-12-11T08:23:16;19.00;;;12.50;;
39880;SDS011;25554;44.954;10.068;2022-12-11T08:25:42;17.77;;;11.38;;
39880;SDS011;25554;44.954;10.068;2022-12-11T08:28:08;19.95;;;11.90;;
39880;SDS011;25554;44.954;10.068;2022-12-11T08:30:34;18.60;;;11.63;;
39880;SDS011;25554;44.954;10.068;2022-12-11T08:33:03;16.38;;;11.05;;
39880;SDS011;25554;44.954;10.068;2022-12-11T08:37:56;18.90;;;11.90;;
39880;SDS011;25554;44.954;10.068;2022-12-11T08:42:48;20.58;;;12.38;;
39880;SDS011;25554;44.954;10.068;2022-12-11T08:47:40;24.05;;;11.60;;
39880;SDS011;25554;44.954;10.068;2022-12-11T08:50:07;21.15;;;11.68;;
39880;SDS011;25554;44.954;10.068;2022-12-11T08:52:34;18.73;;;12.38;;
39880;SDS011;25554;44.954;10.068;2022-12-11T08:55:00;18.25;;;12.40;;
39880;SDS011;25554;44.954;10.068;2022-12-11T08:57:27;22.13;;;14.23;;
39880;SDS011;25554;44.954;10.068;2022-12-11T08:59:53;19.75;;;13.57;;
39880;SDS011;25554;44.954;10.068;2022-12-11T09:02:19;20.13;;;13.43;;
39880;SDS011;25554;44.954;10.068;2022-12-11T09:04:46;22.85;;;13.57;;
39880;SDS011;25554;44.954;10.068;2022-12-11T09:07:12;22.40;;;14.68;;
39880;SDS011;25554;44.954;10.068;2022-12-11T09:09:38;21.45;;;13.57;;
39880;SDS011;25554;44.954;10.068;2022-12-11T09:12:04;21.42;;;13.40;;
39880;SDS011;25554;44.954;10.068;2022-12-11T09:16:57;18.90;;;12.90;;
39880;SDS011;25554;44.954;10.068;2022-12-11T09:19:23;16.55;;;12.32;;
39880;SDS011;25554;44.954;10.068;2022-12-11T09:21:49;22.02;;;12.80;;
39880;SDS011;25554;44.954;10.068;2022-12-11T09:24:15;21.58;;;13.70;;
39880;SDS011;25554;44.954;10.068;2022-12-11T09:26:42;19.33;;;12.57;;
39880;SDS011;25554;44.954;10.068;2022-12-11T09:29:09;19.58;;;13.45;;
39880;SDS011;25554;44.954;10.068;2022-12-11T09:31:36;19.67;;;13.30;;
39880;SDS011;25554;44.954;10.068;2022-12-11T09:36:31;20.17;;;11.88;;
39880;SDS011;25554;44.954;10.068;2022-12-11T09:39:02;19.38;;;12.15;;
39880;SDS011;25554;44.954;10.068;2022-12-11T09:41:36;18.27;;;12.00;;
39880;SDS011;25554;44.954;10.068;2022-12-11T09:44:38;23.02;;;13.82;;
39880;SDS011;25554;44.954;10.068;2022-12-11T09:47:22;20.15;;;12.77;;
39880;SDS011;25554;44.954;10.068;2022-12-11T09:49:55;19.00;;;12.65;;
39880;SDS011;25554;44.954;10.068;2022-12-11T09:55:15;23.05;;;12.73;;
39880;SDS011;25554;44.954;10.068;2022-12-11T09:58:00;16.95;;;11.18;;
39880;SDS011;25554;44.954;10.068;2022-12-11T10:03:20;14.82;;;10.88;;
39880;SDS011;25554;44.954;10.068;2022-12-11T10:16:44;14.07;;;9.65;;
39880;SDS011;25554;44.954;10.068;2022-12-11T10:19:15;13.15;;;9.18;;
39880;SDS011;25554;44.954;10.068;2022-12-11T10:21:45;13.15;;;8.77;;
39880;SDS011;25554;44.954;10.068;2022-12-11T10:24:24;14.48;;;8.93;;
39880;SDS011;25554;44.954;10.068;2022-12-11T10:27:17;17.05;;;9.43;;
39880;SDS011;25554;44.954;10.068;2022-12-11T10:29:46;13.55;;;9.13;;
39880;SDS011;25554;44.954;10.068;2022-12-11T10:32:22;13.70;;;8.40;;
39880;SDS011;25554;44.954;10.068;2022-12-11T10:34:56;14.73;;;9.07;;
39880;SDS011;25554;44.954;10.068;2022-12-11T10:37:27;15.27;;;10.02;;
39880;SDS011;25554;44.954;10.068;2022-12-11T10:39:53;16.15;;;9.95;;
39880;SDS011;25554;44.954;10.068;2022-12-11T10:45:00;12.05;;;8.48;;
39880;SDS011;25554;44.954;10.068;2022-12-11T10:47:28;12.40;;;8.88;;
39880;SDS011;25554;44.954;10.068;2022-12-11T10:49:55;10.65;;;8.15;;
39880;SDS011;25554;44.954;10.068;2022-12-11T10:52:24;14.20;;;8.85;;
39880;SDS011;25554;44.954;10.068;2022-12-11T10:55:05;13.05;;;8.20;;
39880;SDS011;25554;44.954;10.068;2022-12-11T10:57:54;15.85;;;8.63;;
39880;SDS011;25554;44.954;10.068;2022-12-11T11:00:30;11.50;;;7.82;;
39880;SDS011;25554;44.954;10.068;2022-12-11T11:03:04;12.88;;;8.02;;
39880;SDS011;25554;44.954;10.068;2022-12-11T11:05:44;12.52;;;9.00;;
39880;SDS011;25554;44.954;10.068;2022-12-11T11:08:12;13.77;;;8.35;;
39880;SDS011;25554;44.954;10.068;2022-12-11T11:13:20;14.43;;;8.05;;
39880;SDS011;25554;44.954;10.068;2022-12-11T11:15:49;10.50;;;6.70;;
39880;SDS011;25554;44.954;10.068;2022-12-11T11:18:24;12.00;;;6.68;;
39880;SDS011;25554;44.954;10.068;2022-12-11T11:20:52;11.50;;;7.35;;
39880;SDS011;25554;44.954;10.068;2022-12-11T11:23:19;10.95;;;6.63;;
39880;SDS011;25554;44.954;10.068;2022-12-11T11:28:32;10.20;;;6.88;;
39880;SDS011;25554;44.954;10.068;2022-12-11T11:31:05;11.52;;;6.53;;
39880;SDS011;25554;44.954;10.068;2022-12-11T11:33:33;12.02;;;6.88;;
39880;SDS011;25554;44.954;10.068;2022-12-11T11:36:03;10.30;;;6.47;;
39880;SDS011;25554;44.954;10.068;2022-12-11T11:43:59;8.40;;;6.18;;
39880;SDS011;25554;44.954;10.068;2022-12-11T11:46:36;9.30;;;6.57;;
39880;SDS011;25554;44.954;10.068;2022-12-11T11:52:33;9.88;;;6.65;;
39880;SDS011;25554;44.954;10.068;2022-12-11T11:55:28;8.38;;;5.97;;
39880;SDS011;25554;44.954;10.068;2022-12-11T11:58:12;7.38;;;5.22;;
39880;SDS011;25554;44.954;10.068;2022-12-11T12:00:43;8.40;;;6.13;;
39880;SDS011;25554;44.954;10.068;2022-12-11T12:14:33;7.05;;;5.03;;
39880;SDS011;25554;44.954;10.068;2022-12-11T12:20:27;7.53;;;5.57;;
39880;SDS011;25554;44.954;10.068;2022-12-11T12:26:08;9.68;;;5.95;;
39880;SDS011;25554;44.954;10.068;2022-12-11T12:37:18;10.25;;;5.68;;
39880;SDS011;25554;44.954;10.068;2022-12-11T12:40:18;8.05;;;5.10;;
39880;SDS011;25554;44.954;10.068;2022-12-11T12:48:27;7.07;;;4.80;;
39880;SDS011;25554;44.954;10.068;2022-12-11T12:50:54;6.38;;;4.97;;
39880;SDS011;25554;44.954;10.068;2022-12-11T12:53:23;2.13;;;1.85;;
39880;SDS011;25554;44.954;10.068;2022-12-11T12:55:51;2.78;;;1.13;;
39880;SDS011;25554;44.954;10.068;2022-12-11T13:06:32;2.25;;;1.35;;
39880;SDS011;25554;44.954;10.068;2022-12-11T13:11:55;1.52;;;1.20;;
39880;SDS011;25554;44.954;10.068;2022-12-11T13:19:44;1.40;;;1.15;;
39880;SDS011;25554;44.954;10.068;2022-12-11T13:27:25;1.65;;;1.50;;
39880;SDS011;25554;44.954;10.068;2022-12-11T13:30:07;2.95;;;1.60;;
39880;SDS011;25554;44.954;10.068;2022-12-11T13:35:21;2.45;;;1.52;;
39880;SDS011;25554;44.954;10.068;2022-12-11T13:37:48;1.30;;;1.20;;
39880;SDS011;25554;44.954;10.068;2022-12-11T13:40:20;1.50;;;1.10;;
39880;SDS011;25554;44.954;10.068;2022-12-11T13:42:51;1.63;;;1.30;;
39880;SDS011;25554;44.954;10.068;2022-12-11T13:45:39;2.00;;;1.70;;
39880;SDS011;25554;44.954;10.068;2022-12-11T13:48:17;1.48;;;1.13;;
39880;SDS011;25554;44.954;10.068;2022-12-11T13:50:48;1.58;;;1.35;;
39880;SDS011;25554;44.954;10.068;2022-12-11T13:53:17;2.33;;;1.20;;
39880;SDS011;25554;44.954;10.068;2022-12-11T13:55:44;1.40;;;1.30;;
39880;SDS011;25554;44.954;10.068;2022-12-11T13:58:18;3.20;;;1.65;;
39880;SDS011;25554;44.954;10.068;2022-12-11T14:03:24;1.77;;;1.52;;
39880;SDS011;25554;44.954;10.068;2022-12-11T14:05:50;1.67;;;1.50;;
39880;SDS011;25554;44.954;10.068;2022-12-11T14:08:19;3.85;;;1.67;;
39880;SDS011;25554;44.954;10.068;2022-12-11T14:10:51;2.65;;;1.40;;
39880;SDS011;25554;44.954;10.068;2022-12-11T14:13:26;2.25;;;1.35;;
39880;SDS011;25554;44.954;10.068;2022-12-11T14:16:02;2.13;;;1.50;;
39880;SDS011;25554;44.954;10.068;2022-12-11T14:18:29;2.22;;;1.60;;
39880;SDS011;25554;44.954;10.068;2022-12-11T14:20:59;2.00;;;1.48;;
39880;SDS011;25554;44.954;10.068;2022-12-11T14:23:28;1.98;;;1.58;;
39880;SDS011;25554;44.954;10.068;2022-12-11T14:25:57;1.80;;;1.63;;
39880;SDS011;25554;44.954;10.068;2022-12-11T14:28:26;1.90;;;1.75;;
39880;SDS011;25554;44.954;10.068;2022-12-11T14:30:58;3.30;;;1.92;;
39880;SDS011;25554;44.954;10.068;2022-12-11T14:33:28;2.72;;;2.45;;
39880;SDS011;25554;44.954;10.068;2022-12-11T14:35:58;2.80;;;2.05;;
39880;SDS011;25554;44.954;10.068;2022-12-11T14:38:27;4.93;;;1.85;;
39880;SDS011;25554;44.954;10.068;2022-12-11T14:41:01;2.28;;;1.92;;
39880;SDS011;25554;44.954;10.068;2022-12-11T14:43:34;1.98;;;1.50;;
39880;SDS011;25554;44.954;10.068;2022-12-11T14:46:06;2.33;;;1.77;;
39880;SDS011;25554;44.954;10.068;2022-12-11T14:48:43;2.65;;;2.10;;
39880;SDS011;25554;44.954;10.068;2022-12-11T14:51:15;1.88;;;1.65;;
39880;SDS011;25554;44.954;10.068;2022-12-11T14:53:45;2.08;;;1.65;;
39880;SDS011;25554;44.954;10.068;2022-12-11T14:56:18;1.70;;;1.33;;
39880;SDS011;25554;44.954;10.068;2022-12-11T14:59:13;3.10;;;2.00;;
39880;SDS011;25554;44.954;10.068;2022-12-11T15:01:43;2.20;;;1.85;;
39880;SDS011;25554;44.954;10.068;2022-12-11T15:06:43;2.63;;;2.22;;
39880;SDS011;25554;44.954;10.068;2022-12-11T15:11:44;3.75;;;2.30;;
39880;SDS011;25554;44.954;10.068;2022-12-11T15:14:11;3.08;;;2.50;;
39880;SDS011;25554;44.954;10.068;2022-12-11T15:16:40;2.67;;;2.15;;
39880;SDS011;25554;44.954;10.068;2022-12-11T15:19:13;3.30;;;2.50;;
39880;SDS011;25554;44.954;10.068;2022-12-11T15:22:05;3.35;;;2.80;;
39880;SDS011;25554;44.954;10.068;2022-12-11T15:24:41;3.53;;;2.60;;
39880;SDS011;25554;44.954;10.068;2022-12-11T15:30:23;3.33;;;2.08;;
39880;SDS011;25554;44.954;10.068;2022-12-11T15:33:03;5.13;;;3.63;;
39880;SDS011;25554;44.954;10.068;2022-12-11T15:35:36;5.75;;;3.60;;
39880;SDS011;25554;44.954;10.068;2022-12-11T15:38:04;5.75;;;3.10;;
39880;SDS011;25554;44.954;10.068;2022-12-11T15:40:31;6.68;;;5.10;;
39880;SDS011;25554;44.954;10.068;2022-12-11T15:45:25;4.00;;;2.88;;
39880;SDS011;25554;44.954;10.068;2022-12-11T15:47:53;2.90;;;2.50;;
39880;SDS011;25554;44.954;10.068;2022-12-11T15:52:46;2.85;;;2.53;;
39880;SDS011;25554;44.954;10.068;2022-12-11T15:57:40;4.23;;;2.10;;
39880;SDS011;25554;44.954;10.068;2022-12-11T16:00:16;3.72;;;3.00;;
39880;SDS011;25554;44.954;10.068;2022-12-11T16:02:44;8.07;;;5.22;;
39880;SDS011;25554;44.954;10.068;2022-12-11T16:05:11;6.88;;;4.18;;
39880;SDS011;25554;44.954;10.068;2022-12-11T16:07:38;10.43;;;5.45;;
39880;SDS011;25554;44.954;10.068;2022-12-11T16:10:05;18.00;;;7.68;;
39880;SDS011;25554;44.954;10.068;2022-12-11T16:12:32;15.43;;;8.70;;
39880;SDS011;25554;44.954;10.068;2022-12-11T16:14:59;12.98;;;6.60;;
39880;SDS011;25554;44.954;10.068;2022-12-11T16:17:25;9.25;;;5.10;;
39880;SDS011;25554;44.954;10.068;2022-12-11T16:19:51;7.00;;;4.05;;
39880;SDS011;25554;44.954;10.068;2022-12-11T16:22:18;7.63;;;4.57;;
39880;SDS011;25554;44.954;10.068;2022-12-11T16:24:45;4.07;;;2.78;;
39880;SDS011;25554;44.954;10.068;2022-12-11T16:27:11;6.43;;;3.92;;
39880;SDS011;25554;44.954;10.068;2022-12-11T16:29:38;7.22;;;4.32;;
39880;SDS011;25554;44.954;10.068;2022-12-11T16:32:06;4.20;;;2.78;;
39880;SDS011;25554;44.954;10.068;2022-12-11T16:34:34;6.50;;;4.22;;
39880;SDS011;25554;44.954;10.068;2022-12-11T16:37:04;7.45;;;4.38;;
39880;SDS011;25554;44.954;10.068;2022-12-11T16:39:31;5.38;;;4.22;;
39880;SDS011;25554;44.954;10.068;2022-12-11T16:41:58;5.20;;;4.68;;
39880;SDS011;25554;44.954;10.068;2022-12-11T16:44:24;4.35;;;3.83;;
39880;SDS011;25554;44.954;10.068;2022-12-11T16:46:52;4.03;;;3.35;;
39880;SDS011;25554;44.954;10.068;2022-12-11T16:49:18;5.03;;;3.92;;
39880;SDS011;25554;44.954;10.068;2022-12-11T16:51:45;5.50;;;4.25;;
39880;SDS011;25554;44.954;10.068;2022-12-11T16:54:14;4.97;;;3.85;;
39880;SDS011;25554;44.954;10.068;2022-12-11T16:56:40;7.03;;;4.88;;
39880;SDS011;25554;44.954;10.068;2022-12-11T17:01:33;7.72;;;6.00;;
39880;SDS011;25554;44.954;10.068;2022-12-11T17:06:25;5.13;;;4.57;;
39880;SDS011;25554;44.954;10.068;2022-12-11T17:08:54;4.10;;;3.50;;
39880;SDS011;25554;44.954;10.068;2022-12-11T17:11:21;4.65;;;3.47;;
39880;SDS011;25554;44.954;10.068;2022-12-11T17:13:53;4.65;;;3.47;;
39880;SDS011;25554;44.954;10.068;2022-12-11T17:16:21;4.15;;;3.38;;
39880;SDS011;25554;44.954;10.068;2022-12-11T17:18:51;4.93;;;3.83;;
39880;SDS011;25554;44.954;10.068;2022-12-11T17:21:18;5.07;;;4.28;;
39880;SDS011;25554;44.954;10.068;2022-12-11T17:23:47;7.13;;;5.68;;
39880;SDS011;25554;44.954;10.068;2022-12-11T17:26:14;8.13;;;5.95;;
39880;SDS011;25554;44.954;10.068;2022-12-11T17:28:41;7.53;;;5.75;;
39880;SDS011;25554;44.954;10.068;2022-12-11T17:33:38;4.50;;;3.78;;
39880;SDS011;25554;44.954;10.068;2022-12-11T17:36:05;6.28;;;4.88;;
39880;SDS011;25554;44.954;10.068;2022-12-11T17:38:32;5.75;;;4.60;;
39880;SDS011;25554;44.954;10.068;2022-12-11T17:40:59;7.07;;;5.35;;
39880;SDS011;25554;44.954;10.068;2022-12-11T17:43:29;7.13;;;4.90;;
39880;SDS011;25554;44.954;10.068;2022-12-11T17:45:55;6.18;;;5.07;;
39880;SDS011;25554;44.954;10.068;2022-12-11T17:48:21;6.90;;;5.22;;
39880;SDS011;25554;44.954;10.068;2022-12-11T17:50:49;6.30;;;4.30;;
39880;SDS011;25554;44.954;10.068;2022-12-11T17:53:17;6.50;;;5.10;;
39880;SDS011;25554;44.954;10.068;2022-12-11T17:55:44;6.45;;;5.05;;
39880;SDS011;25554;44.954;10.068;2022-12-11T17:58:20;10.98;;;6.03;;